»·PEaware :: SWA8352 MMML-KABQ

SWA8352 :: MMML-KABQ

FLIGHT INFORMATION

Flight Status: Arrived
Operator:
Southwest Airlines
More flights by this operator :: More flights under this callsign
Pilot: Matthew M. (27032)
Aircraft: BOEING 737-800
(B738)
More flights by this aircraft type
Origin: MMML Gen Rodolfo Sanchez Taboada
Mexico
Destination: KABQ Albuquerque Intl Sunport
United States
More flights between these airports :: More routes between these airports
Route: +BZA J18 SJN LAVAN3
File this flight plan on PilotEdge
Remarks: RMK / SWA CHARTER / FSECONOMY
Altitude:
(Current/Filed)
35,000ft
Speed:
(Current/Filed)
430kts
Departed: 18-Dec-19 06:31 PM
Arrived: 18-Dec-19 07:41 PM
Distance/Time
Traveled:
453nm/1:09
Distance/Time
To Go:
Arrived

Flight Plot

Page will automatically refresh every two minutes.

Flight plan parsing failed; only flown route is shown


Map Options




Map Legend


Flown Route
Filed Route
Departure Airport
Arrival Airport
Navaid (VOR, NDB)
Fix

Horizontal Profiles

Position Reports

Time Latitude Longitude Heading Altitude Ground
Speed
18-Dec-19 18:12 32.629071 -115.247468 299 68ft 0kts
18-Dec-19 18:13 32.629071 -115.247468 299 68ft 0kts
18-Dec-19 18:14 32.629071 -115.247468 299 68ft 0kts
18-Dec-19 18:15 32.629071 -115.247468 299 68ft 0kts
18-Dec-19 18:16 32.629071 -115.247468 299 68ft 0kts
18-Dec-19 18:17 32.629071 -115.247468 299 68ft 0kts
18-Dec-19 18:18 32.629071 -115.247468 299 68ft 0kts
18-Dec-19 18:19 32.629071 -115.247468 299 68ft 0kts
18-Dec-19 18:20 32.629071 -115.247468 299 68ft 0kts
18-Dec-19 18:21 32.629071 -115.247468 299 68ft 0kts
18-Dec-19 18:22 32.629071 -115.247468 299 68ft 0kts
18-Dec-19 18:23 32.629071 -115.247468 299 68ft 0kts
18-Dec-19 18:24 32.629071 -115.247468 299 68ft 0kts
18-Dec-19 18:25 32.629071 -115.247468 299 68ft 0kts
18-Dec-19 18:25 32.629071 -115.247468 299 68ft 0kts
18-Dec-19 18:27 32.629071 -115.247468 299 68ft 0kts
18-Dec-19 18:28 32.632251 -115.245306 117 70ft 22kts
18-Dec-19 18:28 32.628583 -115.237457 122 70ft 40kts
18-Dec-19 18:30 32.624810 -115.229786 62 67ft 14kts
18-Dec-19 18:30 32.633420 -115.247673 298 630ft 157kts
18-Dec-19 18:31 32.626444 -115.295375 222 3281ft 199kts
18-Dec-19 18:32 32.567274 -115.292992 137 6802ft 259kts
18-Dec-19 18:33 32.563656 -115.208635 68 10452ft 291kts
18-Dec-19 18:34 32.595190 -115.115772 68 13693ft 318kts
18-Dec-19 18:35 32.631097 -115.009932 69 15857ft 376kts
18-Dec-19 18:36 32.672889 -114.886168 69 17477ft 431kts
18-Dec-19 18:37 32.717437 -114.753915 69 17485ft 431kts
18-Dec-19 18:38 32.759846 -114.622417 79 17490ft 426kts
18-Dec-19 18:39 32.769765 -114.483634 92 17487ft 420kts
18-Dec-19 18:40 32.771697 -114.346411 93 17487ft 420kts
18-Dec-19 18:41 32.773481 -114.207024 93 17481ft 413kts
18-Dec-19 18:42 32.775027 -114.070382 93 17483ft 414kts
18-Dec-19 18:43 32.781240 -113.933381 83 17485ft 418kts
18-Dec-19 18:44 32.800889 -113.798244 83 17485ft 418kts
18-Dec-19 18:45 32.820337 -113.661817 82 17485ft 417kts
18-Dec-19 18:46 32.839508 -113.525899 82 17474ft 418kts
18-Dec-19 18:47 32.858628 -113.389806 82 17460ft 417kts
18-Dec-19 18:48 32.877642 -113.253533 83 17454ft 417kts
18-Dec-19 18:49 32.896410 -113.117725 82 17455ft 415kts
18-Dec-19 18:50 32.914952 -112.982449 82 17456ft 415kts
18-Dec-19 18:51 32.933389 -112.846810 82 17457ft 415kts
18-Dec-19 18:52 32.953640 -112.711468 73 17459ft 414kts
18-Dec-19 18:53 33.011540 -112.593456 50 17527ft 413kts
18-Dec-19 18:54 33.085045 -112.485498 49 20220ft 419kts
18-Dec-19 18:55 33.157528 -112.378848 50 22348ft 432kts
18-Dec-19 18:56 33.231355 -112.269969 50 23807ft 444kts
18-Dec-19 18:57 33.308418 -112.155892 51 25444ft 452kts
18-Dec-19 18:58 33.382250 -112.046282 50 26923ft 461kts
18-Dec-19 18:59 33.450003 -111.923696 65 28687ft 461kts
18-Dec-19 19:00 33.502072 -111.781188 68 30195ft 469kts
18-Dec-19 19:01 33.553504 -111.639862 67 32046ft 464kts
18-Dec-19 19:02 33.604601 -111.498735 67 33793ft 461kts
18-Dec-19 19:03 33.655197 -111.358441 67 35076ft 467kts
18-Dec-19 19:04 33.707186 -111.213200 67 35074ft 496kts
18-Dec-19 19:05 33.761492 -111.060977 67 35093ft 493kts
18-Dec-19 19:06 33.815249 -110.909858 67 35167ft 493kts
18-Dec-19 19:07 33.868730 -110.758295 67 35169ft 492kts
18-Dec-19 19:08 33.922258 -110.606311 67 35161ft 492kts
18-Dec-19 19:09 33.973867 -110.459177 67 35164ft 494kts
18-Dec-19 19:10 34.024456 -110.314006 68 35156ft 492kts
18-Dec-19 19:11 34.078041 -110.159499 67 35158ft 494kts
18-Dec-19 19:12 34.127154 -110.017454 67 35152ft 491kts
18-Dec-19 19:13 34.180156 -109.863487 67 35156ft 493kts
18-Dec-19 19:14 34.232890 -109.709510 67 35156ft 492kts
18-Dec-19 19:15 34.284259 -109.558087 67 35140ft 491kts
18-Dec-19 19:16 34.335752 -109.406080 67 35160ft 489kts
18-Dec-19 19:17 34.387166 -109.253850 68 35133ft 491kts
18-Dec-19 19:18 34.432176 -109.099442 79 34375ft 485kts
18-Dec-19 19:19 34.458813 -108.941238 79 32378ft 481kts
18-Dec-19 19:20 34.485877 -108.782586 79 30382ft 480kts
18-Dec-19 19:21 34.512575 -108.624677 78 28401ft 480kts
18-Dec-19 19:22 34.539011 -108.467097 78 26434ft 481kts
18-Dec-19 19:23 34.564983 -108.310904 79 24485ft 483kts
18-Dec-19 19:24 34.590120 -108.158610 79 22465ft 437kts
18-Dec-19 19:25 34.613060 -108.018241 79 20459ft 416kts
18-Dec-19 19:26 34.635114 -107.882394 79 18948ft 406kts
18-Dec-19 19:27 34.656591 -107.749304 78 17450ft 397kts
18-Dec-19 19:28 34.699715 -107.627526 63 15963ft 389kts
18-Dec-19 19:29 34.749191 -107.512305 64 15015ft 382kts
18-Dec-19 19:30 34.798199 -107.397629 65 15018ft 382kts
18-Dec-19 19:31 34.847014 -107.283036 65 15020ft 382kts
18-Dec-19 19:32 34.894591 -107.170723 67 14799ft 347kts
18-Dec-19 19:33 34.935298 -107.074501 68 14299ft 302kts
18-Dec-19 19:34 34.973191 -106.984633 68 13436ft 292kts
18-Dec-19 19:35 35.008712 -106.900318 68 11313ft 260kts
18-Dec-19 19:36 35.038967 -106.824366 79 9334ft 241kts
18-Dec-19 19:37 35.044980 -106.746944 90 8226ft 225kts
18-Dec-19 19:38 35.043964 -106.680690 91 6346ft 161kts
18-Dec-19 19:39 35.044322 -106.629219 88 5456ft 144kts
18-Dec-19 19:40 35.044250 -106.599344 86 5323ft 30kts
18-Dec-19 19:41 35.046468 -106.600445 252 5323ft 10kts
18-Dec-19 19:42 35.046423 -106.610017 273 5319ft 25kts
18-Dec-19 19:43 35.043988 -106.613722 176 5316ft 22kts
18-Dec-19 19:44 35.040178 -106.613834 180 5316ft 1kts
18-Dec-19 19:45 35.035306 -106.617005 223 5313ft 27kts
18-Dec-19 19:46 35.034996 -106.618232 6 5313ft 4kts
18-Dec-19 19:47 35.035206 -106.618423 305 5312ft 0kts
18-Dec-19 19:48 35.035206 -106.618423 305 5312ft 0kts

Navigation Log

Ident Type
Flight plan parsing failed, navigation log unavailable